Time;durP1;ratioP1;P1;durP2;ratioP2;P2;SDS_P1;SDS_P2;PMS_P1;PMS_P2;Temp;Humidity;BMP_temperature;BMP_pressure;BME280_temperature;BME280_humidity;BME280_pressure;Samples;Min_cycle;Max_cycle;Signal;HPM_P1;HPM_P2
2023/04/09 00:00:16;;;;;;;6.53;3.40;;;8.10;98.00;;;;;;5032960;28;20938;-65
2023/04/09 00:02:43;;;;;;;8.67;3.80;;;8.00;98.00;;;;;;5033065;28;20533;-65
2023/04/09 00:05:10;;;;;;;6.43;3.57;;;8.10;98.00;;;;;;5033063;28;20940;-65
2023/04/09 00:07:38;;;;;;;10.37;4.43;;;8.10;98.00;;;;;;5033273;28;20467;-65
2023/04/09 00:10:06;;;;;;;8.37;4.13;;;8.00;98.00;;;;;;5033113;28;20541;-65
2023/04/09 00:12:33;;;;;;;7.67;4.23;;;8.00;98.00;;;;;;5032932;28;20451;-65
2023/04/09 00:15:01;;;;;;;10.73;3.90;;;7.90;98.00;;;;;;5031954;28;20868;-65
2023/04/09 00:17:29;;;;;;;8.60;4.10;;;7.90;98.00;;;;;;5032936;28;20451;-65
2023/04/09 00:19:56;;;;;;;14.07;4.90;;;7.90;98.00;;;;;;5032105;28;20513;-66
2023/04/09 00:22:23;;;;;;;7.20;3.90;;;7.90;98.00;;;;;;5032539;28;20543;-65
2023/04/09 00:24:50;;;;;;;6.97;3.77;;;7.90;98.00;;;;;;5032785;28;20505;-65
2023/04/09 00:27:17;;;;;;;9.67;4.37;;;8.00;98.00;;;;;;5032234;28;20953;-65
2023/04/09 00:29:44;;;;;;;9.50;4.03;;;8.10;98.00;;;;;;5032779;28;20464;-64
2023/04/09 00:32:13;;;;;;;7.70;4.03;;;8.10;98.00;;;;;;5032683;28;20461;-65
2023/04/09 00:34:43;;;;;;;11.27;4.50;;;8.20;98.00;;;;;;5032520;28;20481;-65
2023/04/09 00:37:10;;;;;;;6.83;3.93;;;8.30;98.00;;;;;;5031406;28;20957;-66
2023/04/09 00:39:37;;;;;;;7.10;3.37;;;8.30;98.00;;;;;;5032597;28;20454;-65
2023/04/09 00:42:04;;;;;;;9.17;4.10;;;8.30;98.00;;;;;;5032283;28;20557;-66
2023/04/09 00:44:32;;;;;;;13.60;4.80;;;8.10;98.00;;;;;;5032819;28;20459;-66
2023/04/09 00:46:59;;;;;;;9.10;3.70;;;8.00;98.00;;;;;;5032567;28;20466;-65
2023/04/09 00:49:28;;;;;;;21.20;4.43;;;7.90;98.00;;;;;;5032338;28;20538;-65
2023/04/09 00:51:56;;;;;;;9.63;4.30;;;7.90;98.00;;;;;;5032143;28;20477;-65
2023/04/09 00:54:23;;;;;;;6.20;3.60;;;7.80;98.00;;;;;;5031763;28;20517;-65
2023/04/09 00:56:51;;;;;;;6.20;3.60;;;7.80;98.00;;;;;;5031673;28;20540;-65
2023/04/09 00:59:19;;;;;;;9.83;3.60;;;7.80;98.00;;;;;;5032026;28;20577;-65
2023/04/09 01:01:46;;;;;;;8.27;3.70;;;7.80;98.00;;;;;;5031388;28;20454;-66
2023/04/09 01:04:13;;;;;;;7.37;3.77;;;7.90;98.00;;;;;;5031682;28;20539;-65
2023/04/09 01:06:49;;;;;;;8.00;4.10;;;7.90;98.00;;;;;;5031456;28;20501;-66
2023/04/09 01:09:24;;;;;;;9.23;3.93;;;7.90;98.00;;;;;;5031543;28;20473;-65
2023/04/09 01:12:02;;;;;;;7.20;4.17;;;7.90;98.00;;;;;;5031430;28;20468;-65
2023/04/09 01:14:37;;;;;;;10.47;4.60;;;7.80;98.00;;;;;;5031551;28;20544;-66
2023/04/09 01:17:11;;;;;;;7.33;3.67;;;7.80;98.00;;;;;;5031072;28;20467;-65
2023/04/09 01:19:53;;;;;;;6.50;3.80;;;7.70;98.00;;;;;;5030215;28;20458;-65
2023/04/09 01:22:42;;;;;;;9.60;4.13;;;7.60;98.00;;;;;;5031481;28;20501;-65
2023/04/09 01:25:33;;;;;;;8.70;4.33;;;7.60;98.00;;;;;;5031412;28;20467;-66
2023/04/09 01:28:16;;;;;;;8.43;4.43;;;7.60;98.00;;;;;;5031266;28;20989;-65
2023/04/09 01:30:48;;;;;;;7.40;3.00;;;7.60;98.00;;;;;;5031325;28;20513;-65
2023/04/09 01:33:16;;;;;;;8.47;4.00;;;7.50;98.00;;;;;;5031156;28;20489;-65
2023/04/09 01:35:46;;;;;;;5.90;3.33;;;7.50;98.00;;;;;;5031061;28;20467;-65
2023/04/09 01:38:16;;;;;;;9.73;4.07;;;7.50;98.00;;;;;;5031435;28;20463;-65
2023/04/09 01:40:44;;;;;;;6.77;3.83;;;7.50;98.00;;;;;;5031276;28;20469;-65
2023/04/09 01:43:13;;;;;;;5.03;3.37;;;7.50;98.00;;;;;;5031554;28;20483;-64
2023/04/09 01:45:41;;;;;;;8.03;4.17;;;7.50;98.00;;;;;;5030358;28;20463;-66
2023/04/09 01:48:10;;;;;;;9.80;3.63;;;7.50;98.00;;;;;;5031345;28;20601;-64
2023/04/09 01:50:38;;;;;;;7.03;3.77;;;7.60;98.00;;;;;;5031073;28;20459;-66
2023/04/09 01:53:07;;;;;;;6.77;3.67;;;7.60;98.00;;;;;;5031442;28;20470;-65
2023/04/09 01:55:34;;;;;;;5.77;3.60;;;7.80;98.00;;;;;;5030063;28;20451;-65
2023/04/09 01:58:01;;;;;;;4.70;3.20;;;8.00;98.00;;;;;;5031422;28;20469;-65
2023/04/09 02:00:35;;;;;;;6.83;3.60;;;8.20;98.00;;;;;;5031332;28;20459;-65
2023/04/09 02:03:09;;;;;;;9.10;3.97;;;8.20;98.00;;;;;;5031265;28;20489;-66
2023/04/09 02:05:41;;;;;;;7.00;3.50;;;8.10;98.00;;;;;;5031549;28;20581;-65
2023/04/09 02:08:12;;;;;;;7.20;3.87;;;8.10;98.00;;;;;;5031439;28;20460;-66
2023/04/09 02:10:40;;;;;;;8.33;3.73;;;8.10;98.00;;;;;;5030335;28;20469;-65
2023/04/09 02:13:13;;;;;;;6.80;4.13;;;8.10;98.00;;;;;;5031209;28;20468;-66
2023/04/09 02:15:42;;;;;;;12.20;4.87;;;7.90;98.00;;;;;;5031117;28;20508;-65
2023/04/09 02:18:22;;;;;;;7.17;3.90;;;7.80;98.00;;;;;;5031502;28;20454;-66
2023/04/09 02:20:50;;;;;;;10.27;3.73;;;7.80;98.00;;;;;;5030167;28;20458;-66
2023/04/09 02:23:18;;;;;;;8.43;3.70;;;7.80;98.00;;;;;;5031650;28;20528;-65
2023/04/09 02:25:45;;;;;;;6.80;3.67;;;7.80;98.00;;;;;;5033830;28;20462;-65
2023/04/09 02:28:12;;;;;;;8.83;3.67;;;7.80;98.00;;;;;;5034194;28;20458;-65
2023/04/09 02:30:42;;;;;;;11.40;4.20;;;7.90;98.00;;;;;;5034892;28;20458;-65
2023/04/09 02:33:10;;;;;;;9.00;4.00;;;7.80;98.00;;;;;;5034970;28;20963;-65
2023/04/09 02:35:37;;;;;;;8.37;4.10;;;7.70;98.00;;;;;;5034470;28;20975;-66
2023/04/09 02:38:04;;;;;;;5.90;3.67;;;7.60;98.00;;;;;;5033689;28;20451;-65
2023/04/09 02:40:31;;;;;;;11.80;4.50;;;7.50;98.00;;;;;;5034532;28;20463;-65
2023/04/09 02:42:58;;;;;;;7.60;3.77;;;7.50;98.00;;;;;;5034428;28;20481;-65
2023/04/09 02:45:25;;;;;;;8.50;4.00;;;7.60;98.00;;;;;;5034702;28;20532;-66
2023/04/09 02:47:54;;;;;;;8.20;4.07;;;7.60;98.00;;;;;;5034171;28;20458;-66
2023/04/09 02:50:21;;;;;;;8.80;4.63;;;7.60;98.00;;;;;;5034320;28;20458;-64
2023/04/09 02:52:48;;;;;;;9.80;4.87;;;7.60;98.00;;;;;;5032939;28;20459;-64
2023/04/09 02:55:16;;;;;;;6.43;3.60;;;7.60;98.00;;;;;;5034397;28;20454;-65
2023/04/09 02:57:43;;;;;;;11.07;4.33;;;7.50;98.00;;;;;;5034445;28;20478;-65
2023/04/09 03:00:11;;;;;;;9.97;4.60;;;7.60;98.00;;;;;;5034370;28;20466;-65
2023/04/09 03:02:38;;;;;;;8.30;4.00;;;7.60;98.00;;;;;;5034122;28;20479;-66
2023/04/09 03:05:08;;;;;;;9.33;3.70;;;7.50;98.00;;;;;;5034312;28;20458;-65
2023/04/09 03:07:35;;;;;;;12.93;5.20;;;7.60;98.00;;;;;;5034024;28;20507;-65
2023/04/09 03:10:02;;;;;;;8.70;4.60;;;7.50;98.00;;;;;;5034404;28;20469;-65
2023/04/09 03:12:30;;;;;;;9.73;4.30;;;7.50;98.00;;;;;;5033996;28;20459;-65
2023/04/09 03:14:57;;;;;;;6.80;3.57;;;7.60;98.00;;;;;;5033871;28;20455;-65
2023/04/09 03:17:26;;;;;;;7.77;3.87;;;7.70;98.00;;;;;;5032958;28;20455;-66
2023/04/09 03:19:54;;;;;;;7.87;3.70;;;7.70;98.00;;;;;;5033878;28;20516;-64
2023/04/09 03:22:22;;;;;;;10.43;4.40;;;7.80;98.00;;;;;;5032571;28;20467;-65
2023/04/09 03:24:49;;;;;;;8.47;3.77;;;7.80;98.00;;;;;;5034092;28;20513;-66
2023/04/09 03:27:17;;;;;;;12.97;4.50;;;7.80;98.00;;;;;;5033750;28;20510;-64
2023/04/09 03:29:45;;;;;;;6.83;3.80;;;7.70;98.00;;;;;;5033844;28;21022;-65
2023/04/09 03:32:12;;;;;;;8.57;3.93;;;7.70;98.00;;;;;;5033923;28;20497;-65
2023/04/09 03:34:39;;;;;;;10.40;3.93;;;7.70;98.00;;;;;;5033218;28;20513;-65
2023/04/09 03:37:08;;;;;;;6.33;3.73;;;7.60;98.00;;;;;;5033325;28;20442;-64
2023/04/09 03:39:42;;;;;;;6.93;3.87;;;7.50;98.00;;;;;;5034070;28;20450;-64
2023/04/09 03:42:09;;;;;;;11.83;4.37;;;7.40;98.00;;;;;;5033535;28;20457;-64
2023/04/09 03:44:37;;;;;;;6.23;3.63;;;7.40;98.00;;;;;;5033780;28;20554;-64
2023/04/09 03:47:04;;;;;;;10.00;4.40;;;7.50;98.00;;;;;;5033482;28;20831;-64
2023/04/09 03:49:31;;;;;;;9.27;4.13;;;7.40;98.00;;;;;;5033704;28;20462;-64
2023/04/09 03:51:58;;;;;;;6.30;3.50;;;7.50;98.00;;;;;;5032300;28;20455;-65
2023/04/09 03:54:28;;;;;;;7.57;3.93;;;7.50;98.00;;;;;;5033293;28;20468;-64
2023/04/09 03:57:00;;;;;;;8.27;3.67;;;7.60;98.00;;;;;;5033229;28;20466;-64
2023/04/09 03:59:27;;;;;;;6.73;3.93;;;7.60;98.00;;;;;;5033289;28;20464;-64
2023/04/09 04:01:54;;;;;;;7.57;3.80;;;7.80;98.00;;;;;;5033158;28;20450;-64
2023/04/09 04:04:21;;;;;;;7.90;3.80;;;7.80;98.00;;;;;;5032909;28;21054;-64
2023/04/09 04:06:48;;;;;;;8.73;3.30;;;7.80;98.00;;;;;;5033102;28;20461;-64
2023/04/09 04:09:18;;;;;;;13.07;4.00;;;7.80;98.00;;;;;;5033193;28;20509;-64
2023/04/09 04:11:45;;;;;;;6.70;3.47;;;7.90;98.00;;;;;;5031979;28;20545;-65
2023/04/09 04:14:19;;;;;;;7.57;3.77;;;7.90;98.00;;;;;;5032220;28;20473;-64
2023/04/09 04:16:47;;;;;;;5.27;3.20;;;7.90;98.00;;;;;;5033075;28;20456;-64
2023/04/09 04:19:16;;;;;;;11.37;4.07;;;7.80;98.00;;;;;;5033099;28;20813;-64
2023/04/09 04:21:43;;;;;;;6.30;3.63;;;7.70;98.00;;;;;;5032994;28;20786;-64
2023/04/09 04:24:10;;;;;;;4.13;2.80;;;7.60;98.00;;;;;;5032786;28;20501;-64
2023/04/09 04:26:37;;;;;;;9.70;4.07;;;7.50;98.00;;;;;;5032938;28;20449;-65
2023/04/09 04:29:05;;;;;;;8.93;4.23;;;7.40;98.00;;;;;;5032933;28;20519;-64
2023/04/09 04:31:34;;;;;;;9.00;4.23;;;7.40;98.00;;;;;;5032805;28;20546;-64
2023/04/09 04:34:01;;;;;;;6.40;3.70;;;7.30;98.00;;;;;;5032506;28;20458;-65
2023/04/09 04:36:28;;;;;;;7.43;3.50;;;7.30;98.00;;;;;;5031423;28;20484;-64
2023/04/09 04:38:55;;;;;;;7.10;3.90;;;7.20;98.00;;;;;;5031390;28;20458;-64
2023/04/09 04:41:23;;;;;;;7.53;3.37;;;7.20;98.00;;;;;;5032617;28;20645;-64
2023/04/09 04:43:50;;;;;;;9.20;4.60;;;7.20;98.00;;;;;;5032405;28;20528;-65
2023/04/09 04:46:19;;;;;;;7.03;3.70;;;7.20;98.00;;;;;;5032146;28;20462;-65
2023/04/09 04:48:47;;;;;;;6.27;3.70;;;7.20;98.00;;;;;;5032565;28;20461;-64
2023/04/09 04:51:15;;;;;;;7.53;3.50;;;7.20;98.00;;;;;;5032399;28;20512;-64
2023/04/09 04:53:42;;;;;;;7.17;3.10;;;7.20;98.00;;;;;;5031671;28;20991;-64
2023/04/09 04:56:13;;;;;;;10.20;4.33;;;7.10;98.00;;;;;;5031929;28;20461;-64
2023/04/09 04:58:40;;;;;;;7.30;3.70;;;7.20;98.00;;;;;;5031649;28;20841;-65
2023/04/09 05:01:07;;;;;;;7.23;3.83;;;7.20;98.00;;;;;;5031649;28;20532;-64
2023/04/09 05:03:35;;;;;;;8.00;4.00;;;7.10;98.00;;;;;;5031581;28;20480;-66
2023/04/09 05:06:04;;;;;;;11.00;4.37;;;7.10;98.00;;;;;;5031865;28;20454;-67
2023/04/09 05:08:37;;;;;;;8.03;4.10;;;7.10;98.00;;;;;;5031582;28;20476;-67
2023/04/09 05:11:05;;;;;;;8.93;4.27;;;7.20;98.00;;;;;;5030438;28;20496;-66
2023/04/09 05:13:32;;;;;;;7.57;3.33;;;7.30;98.00;;;;;;5031553;28;20460;-66
2023/04/09 05:16:00;;;;;;;6.60;3.80;;;7.40;98.00;;;;;;5031062;28;20516;-66
2023/04/09 05:18:28;;;;;;;6.80;4.03;;;7.50;98.00;;;;;;5031335;28;20457;-67
2023/04/09 05:20:55;;;;;;;10.43;4.97;;;7.60;98.00;;;;;;5031205;28;20459;-66
2023/04/09 05:23:26;;;;;;;7.23;4.00;;;7.60;98.00;;;;;;5029936;28;20558;-66
2023/04/09 05:25:54;;;;;;;8.60;3.90;;;7.60;98.00;;;;;;5031153;28;20461;-66
2023/04/09 05:28:21;;;;;;;9.07;4.10;;;7.70;98.00;;;;;;5031280;28;20458;-67
2023/04/09 05:30:48;;;;;;;12.80;4.80;;;7.90;98.00;;;;;;5030749;28;20523;-66
2023/04/09 05:33:17;;;;;;;8.40;4.23;;;7.80;98.00;;;;;;5031170;28;20458;-66
2023/04/09 05:35:44;;;;;;;10.07;4.30;;;7.70;98.00;;;;;;5030697;28;20504;-66
2023/04/09 05:38:12;;;;;;;6.83;3.77;;;7.50;98.00;;;;;;5031001;28;20468;-67
2023/04/09 05:40:41;;;;;;;8.20;4.00;;;7.40;98.00;;;;;;5030458;28;20461;-66
2023/04/09 05:43:08;;;;;;;8.80;4.43;;;7.40;98.00;;;;;;5031312;28;20541;-66
2023/04/09 05:45:35;;;;;;;9.50;4.40;;;7.40;98.00;;;;;;5031002;28;20462;-67
2023/04/09 05:48:02;;;;;;;5.63;3.20;;;7.40;98.00;;;;;;5029850;28;20454;-67
2023/04/09 05:50:30;;;;;;;5.83;3.47;;;7.40;98.00;;;;;;5031168;28;20461;-66
2023/04/09 05:52:57;;;;;;;8.73;3.60;;;7.40;98.00;;;;;;5031011;28;20564;-66
2023/04/09 05:55:25;;;;;;;7.90;3.90;;;7.30;98.00;;;;;;5031117;28;20880;-66
2023/04/09 05:57:54;;;;;;;6.43;3.47;;;7.30;98.00;;;;;;5031044;28;20474;-64
2023/04/09 06:00:29;;;;;;;7.73;3.70;;;7.30;98.00;;;;;;5034595;28;20481;-64
2023/04/09 06:02:56;;;;;;;9.10;3.53;;;7.40;98.00;;;;;;5035128;28;20462;-64
2023/04/09 06:05:23;;;;;;;11.53;3.90;;;7.60;98.00;;;;;;5034912;28;20983;-63
2023/04/09 06:07:50;;;;;;;8.00;3.83;;;7.70;98.00;;;;;;5034765;28;20465;-64
2023/04/09 06:10:17;;;;;;;9.20;4.60;;;7.80;98.00;;;;;;5034694;28;20658;-64
2023/04/09 06:12:46;;;;;;;6.80;3.63;;;8.00;98.00;;;;;;5034579;28;20465;-64
2023/04/09 06:15:14;;;;;;;9.73;4.47;;;8.10;98.00;;;;;;5034097;28;20506;-64
2023/04/09 06:17:41;;;;;;;9.20;3.83;;;8.20;98.00;;;;;;5034459;28;20965;-63
2023/04/09 06:20:09;;;;;;;8.30;4.20;;;8.30;98.00;;;;;;5034425;28;20527;-64
2023/04/09 06:22:37;;;;;;;10.10;4.70;;;8.30;98.00;;;;;;5034616;28;20465;-63
2023/04/09 06:25:04;;;;;;;7.33;3.60;;;8.30;98.00;;;;;;5034474;28;20482;-64
2023/04/09 06:27:31;;;;;;;10.97;3.77;;;8.30;98.00;;;;;;5034472;28;20458;-64
2023/04/09 06:29:58;;;;;;;7.50;4.10;;;8.30;98.00;;;;;;5034363;28;20468;-63
2023/04/09 06:32:26;;;;;;;7.47;3.83;;;8.50;98.00;;;;;;5033478;28;20508;-64
2023/04/09 06:34:53;;;;;;;12.33;4.13;;;8.50;98.00;;;;;;5043321;28;20457;-64
2023/04/09 06:37:20;;;;;;;8.10;3.73;;;8.50;98.00;;;;;;5054043;28;20453;-64
2023/04/09 06:39:47;;;;;;;7.93;3.90;;;8.40;98.00;;;;;;5043595;28;20805;-64
2023/04/09 06:42:14;;;;;;;10.00;3.97;;;8.50;98.00;;;;;;5034215;28;20466;-63
2023/04/09 06:44:44;;;;;;;13.70;4.83;;;8.60;98.00;;;;;;5034114;28;20564;-63
2023/04/09 06:47:11;;;;;;;5.37;3.23;;;8.60;98.00;;;;;;5034011;28;20987;-64
2023/04/09 06:49:40;;;;;;;7.23;4.37;;;8.70;98.00;;;;;;5033993;28;20465;-64
2023/04/09 06:52:07;;;;;;;5.93;3.97;;;8.70;98.00;;;;;;5034140;28;20463;-63
2023/04/09 06:54:34;;;;;;;6.13;3.20;;;8.70;98.00;;;;;;5033672;28;20506;-64
2023/04/09 06:57:02;;;;;;;5.50;3.30;;;8.80;98.00;;;;;;5041326;28;20532;-65
2023/04/09 06:59:29;;;;;;;11.07;3.63;;;8.80;98.00;;;;;;5049445;28;20460;-61
2023/04/09 07:01:58;;;;;;;8.90;4.17;;;8.80;98.00;;;;;;5053654;28;20463;-62
2023/04/09 07:04:25;;;;;;;8.10;3.43;;;9.00;98.00;;;;;;5053868;28;20808;-62
2023/04/09 07:06:55;;;;;;;10.07;3.73;;;9.00;98.00;;;;;;5053550;28;21024;-62
2023/04/09 07:09:22;;;;;;;8.43;4.13;;;9.00;98.00;;;;;;5053318;28;20458;-64
2023/04/09 07:11:49;;;;;;;9.07;4.33;;;9.20;98.00;;;;;;5053370;28;20460;-64
2023/04/09 07:14:16;;;;;;;13.90;4.93;;;9.20;98.00;;;;;;5053750;28;20593;-64
2023/04/09 07:16:45;;;;;;;8.00;3.90;;;9.30;98.00;;;;;;5053526;28;21024;-65
2023/04/09 07:19:12;;;;;;;6.77;3.60;;;9.40;98.00;;;;;;5053503;28;20461;-64
2023/04/09 07:21:39;;;;;;;7.97;3.90;;;9.40;98.00;;;;;;5053231;28;20504;-64
2023/04/09 07:24:09;;;;;;;10.10;4.47;;;9.50;98.00;;;;;;5053251;28;20486;-63
2023/04/09 07:26:36;;;;;;;8.50;4.30;;;9.60;98.00;;;;;;5051692;28;21001;-63
2023/04/09 07:29:03;;;;;;;11.30;4.40;;;9.50;98.00;;;;;;5052786;28;20470;-64
2023/04/09 07:31:31;;;;;;;7.07;3.53;;;9.70;98.00;;;;;;5053386;28;20555;-64
2023/04/09 07:33:59;;;;;;;7.00;3.67;;;9.80;98.00;;;;;;5052262;28;20457;-64
2023/04/09 07:36:26;;;;;;;9.63;3.77;;;9.90;98.00;;;;;;5053219;28;20474;-63
2023/04/09 07:38:54;;;;;;;7.27;3.80;;;9.90;98.00;;;;;;5053281;28;20459;-64
2023/04/09 07:41:23;;;;;;;9.30;3.53;;;9.90;98.00;;;;;;5046122;28;20869;-63
2023/04/09 07:43:50;;;;;;;9.13;3.67;;;9.90;98.00;;;;;;5052752;28;20467;-64
2023/04/09 07:46:24;;;;;;;10.80;4.20;;;10.00;98.00;;;;;;5052915;28;20463;-64
2023/04/09 07:48:51;;;;;;;8.47;3.87;;;10.10;98.00;;;;;;5052722;28;21007;-64
2023/04/09 07:51:18;;;;;;;5.13;3.53;;;10.20;98.00;;;;;;5052530;28;20521;-64
2023/04/09 07:53:46;;;;;;;6.30;3.67;;;10.20;98.00;;;;;;5052558;28;20495;-64
2023/04/09 07:56:13;;;;;;;7.83;3.70;;;10.30;98.00;;;;;;5052233;28;20949;-64
2023/04/09 07:58:41;;;;;;;9.60;3.50;;;10.20;98.00;;;;;;5052612;28;20462;-64
2023/04/09 08:01:09;;;;;;;5.93;3.33;;;10.20;98.00;;;;;;5052544;28;20458;-65
2023/04/09 08:03:36;;;;;;;6.47;3.37;;;10.40;98.00;;;;;;5052514;28;20465;-64
2023/04/09 08:06:03;;;;;;;6.60;3.60;;;10.50;98.00;;;;;;5052651;28;20486;-64
2023/04/09 08:08:31;;;;;;;11.03;4.10;;;10.60;98.00;;;;;;5052525;28;20822;-64
2023/04/09 08:10:58;;;;;;;10.63;4.43;;;10.70;98.00;;;;;;5051369;28;20544;-64
2023/04/09 08:13:25;;;;;;;6.03;3.10;;;10.90;98.00;;;;;;5052215;28;20523;-64
2023/04/09 08:15:53;;;;;;;7.17;4.10;;;11.00;98.00;;;;;;5052316;28;20883;-64
2023/04/09 08:18:20;;;;;;;9.87;4.00;;;11.10;98.00;;;;;;5052332;28;20465;-64
2023/04/09 08:20:47;;;;;;;10.10;4.50;;;11.10;98.00;;;;;;5052040;28;20520;-64
2023/04/09 08:23:14;;;;;;;7.60;3.73;;;11.30;98.00;;;;;;5051567;28;20450;-64
2023/04/09 08:25:41;;;;;;;10.70;4.67;;;11.40;98.00;;;;;;5052341;28;20900;-64
2023/04/09 08:28:08;;;;;;;9.83;3.93;;;11.50;98.00;;;;;;5052079;28;20464;-64
2023/04/09 08:30:35;;;;;;;8.33;4.07;;;11.60;98.00;;;;;;5052099;28;20466;-64
2023/04/09 08:33:06;;;;;;;6.90;4.03;;;11.60;98.00;;;;;;5051928;28;20459;-64
2023/04/09 08:35:33;;;;;;;6.60;3.40;;;11.50;98.00;;;;;;5052232;28;20470;-64
2023/04/09 08:38:00;;;;;;;5.90;3.37;;;11.50;98.00;;;;;;5052013;28;20511;-64
2023/04/09 08:40:27;;;;;;;8.77;3.90;;;11.60;98.00;;;;;;5052002;28;20458;-65
2023/04/09 08:42:56;;;;;;;11.30;4.40;;;11.50;98.00;;;;;;5051840;28;20832;-64
2023/04/09 08:45:23;;;;;;;6.60;4.00;;;11.40;98.00;;;;;;5051806;28;20932;-64
2023/04/09 08:47:52;;;;;;;6.10;3.43;;;11.20;98.00;;;;;;5051882;28;20872;-62
2023/04/09 08:50:22;;;;;;;10.73;4.50;;;11.10;98.00;;;;;;5051700;28;20541;-62
2023/04/09 08:52:49;;;;;;;13.70;4.33;;;11.30;98.00;;;;;;5051646;28;20980;-63
2023/04/09 08:55:17;;;;;;;5.33;3.07;;;11.50;98.00;;;;;;5051702;28;20831;-62
2023/04/09 08:57:44;;;;;;;9.40;4.20;;;11.70;98.00;;;;;;5051567;28;20465;-62
2023/04/09 09:00:13;;;;;;;8.13;3.53;;;11.80;98.00;;;;;;5051752;28;20479;-63
2023/04/09 09:03:03;;;;;;;6.13;3.53;;;11.70;98.00;;;;;;5051312;28;20458;-62
2023/04/09 09:05:40;;;;;;;10.83;4.20;;;11.80;98.00;;;;;;5051654;28;20568;-62
2023/04/09 09:08:08;;;;;;;10.70;4.40;;;11.70;98.00;;;;;;5051547;28;20464;-63
2023/04/09 09:10:40;;;;;;;8.67;3.67;;;11.70;98.00;;;;;;5051468;28;20489;-63
2023/04/09 09:13:17;;;;;;;8.60;3.40;;;11.90;98.00;;;;;;5051452;28;20457;-63
2023/04/09 09:15:46;;;;;;;7.00;3.80;;;12.20;98.00;;;;;;5051421;28;20458;-62
2023/04/09 09:18:14;;;;;;;8.93;3.97;;;12.20;98.00;;;;;;5051238;28;20554;-64
2023/04/09 09:20:43;;;;;;;5.90;3.20;;;12.40;98.00;;;;;;5051328;28;20595;-64
2023/04/09 09:23:10;;;;;;;6.00;3.60;;;12.50;98.00;;;;;;5051330;28;20463;-64
2023/04/09 09:25:41;;;;;;;8.13;4.30;;;12.50;98.00;;;;;;5051048;28;20482;-63
2023/04/09 09:28:09;;;;;;;6.70;3.60;;;12.60;98.00;;;;;;5051866;28;20462;-63
2023/04/09 09:30:37;;;;;;;9.67;3.67;;;12.80;98.00;;;;;;5051613;28;21007;-64
2023/04/09 09:33:14;;;;;;;6.90;3.53;;;13.00;98.00;;;;;;5050422;28;20514;-64
2023/04/09 09:35:50;;;;;;;7.70;3.67;;;13.30;98.00;;;;;;5051189;28;20471;-62
2023/04/09 09:38:20;;;;;;;8.20;4.20;;;13.40;98.00;;;;;;5051085;28;20977;-62
2023/04/09 09:40:48;;;;;;;9.03;3.70;;;13.70;98.00;;;;;;5051390;28;20452;-63
2023/04/09 09:43:16;;;;;;;7.83;3.53;;;13.80;98.00;;;;;;5050914;28;21022;-65
2023/04/09 09:45:44;;;;;;;6.13;3.60;;;13.90;98.00;;;;;;5051005;28;20538;-65
2023/04/09 09:48:12;;;;;;;6.80;3.03;;;13.80;98.00;;;;;;5051108;28;20641;-65
2023/04/09 09:50:41;;;;;;;5.73;3.07;;;13.90;97.40;;;;;;5050922;28;20473;-65
2023/04/09 09:53:11;;;;;;;8.20;3.90;;;14.10;95.70;;;;;;5051013;28;20556;-65
2023/04/09 09:55:39;;;;;;;6.07;2.90;;;14.30;95.30;;;;;;5050962;28;20458;-64
2023/04/09 09:58:17;;;;;;;4.50;2.73;;;14.30;96.70;;;;;;5050704;28;20472;-64
2023/04/09 10:00:51;;;;;;;5.27;2.90;;;14.60;96.00;;;;;;5050963;28;20510;-62
2023/04/09 10:03:22;;;;;;;7.13;3.33;;;14.80;95.80;;;;;;5050801;28;20488;-63
2023/04/09 10:05:52;;;;;;;7.60;3.13;;;15.10;95.30;;;;;;5050700;28;20833;-62
2023/04/09 10:08:22;;;;;;;6.30;3.23;;;15.20;93.20;;;;;;5050800;28;20969;-62
2023/04/09 10:10:50;;;;;;;6.43;3.43;;;15.40;93.10;;;;;;5050517;28;20482;-63
2023/04/09 10:13:25;;;;;;;8.87;3.97;;;15.60;91.30;;;;;;5050834;28;20537;-64
2023/04/09 10:15:53;;;;;;;7.40;3.37;;;15.80;91.10;;;;;;5050544;28;20449;-62
2023/04/09 10:18:22;;;;;;;7.40;3.60;;;15.80;90.40;;;;;;5050808;28;20457;-62
2023/04/09 10:20:54;;;;;;;8.10;3.70;;;15.90;91.20;;;;;;5050765;28;20457;-62
2023/04/09 10:23:33;;;;;;;5.13;3.07;;;16.10;90.90;;;;;;5050708;28;20469;-62
2023/04/09 10:26:01;;;;;;;6.17;3.27;;;16.20;89.40;;;;;;5050645;28;20999;-62
2023/04/09 10:28:28;;;;;;;6.67;3.30;;;16.30;89.80;;;;;;5050874;28;20461;-62
2023/04/09 10:30:56;;;;;;;7.93;3.90;;;16.10;87.70;;;;;;5050915;28;20453;-63
2023/04/09 10:33:26;;;;;;;9.20;4.10;;;15.60;88.40;;;;;;5049535;28;20531;-62
2023/04/09 10:35:54;;;;;;;10.73;4.03;;;15.30;89.10;;;;;;5050535;28;20481;-63
2023/04/09 10:38:36;;;;;;;9.97;4.43;;;14.90;90.00;;;;;;5050448;28;21010;-61
2023/04/09 10:41:08;;;;;;;8.47;3.27;;;15.20;93.30;;;;;;5050761;28;20450;-62
2023/04/09 10:43:36;;;;;;;7.23;3.47;;;15.10;92.50;;;;;;5050695;28;21006;-62
2023/04/09 10:46:07;;;;;;;7.57;3.77;;;15.50;93.40;;;;;;5053149;28;20484;-64
2023/04/09 10:48:35;;;;;;;6.63;3.80;;;16.00;93.50;;;;;;5053945;28;20830;-64
2023/04/09 10:51:05;;;;;;;8.30;4.00;;;16.20;92.50;;;;;;5053978;28;20457;-64
2023/04/09 10:53:34;;;;;;;7.87;3.50;;;16.40;91.50;;;;;;5053933;28;20564;-64
2023/04/09 10:56:01;;;;;;;7.30;3.83;;;16.50;92.40;;;;;;5053709;28;20493;-63
2023/04/09 10:58:29;;;;;;;10.33;4.10;;;16.20;89.80;;;;;;5053719;28;20461;-63
2023/04/09 11:00:56;;;;;;;9.33;3.90;;;16.10;91.30;;;;;;5053783;28;21003;-63
2023/04/09 11:03:26;;;;;;;7.03;3.73;;;16.20;91.70;;;;;;5053547;28;20460;-63
2023/04/09 11:06:01;;;;;;;9.67;4.10;;;16.20;92.50;;;;;;5053792;28;20480;-63
2023/04/09 11:08:31;;;;;;;6.73;3.40;;;16.60;92.00;;;;;;5053625;28;20453;-65
2023/04/09 11:11:00;;;;;;;5.70;3.07;;;17.00;90.40;;;;;;5053431;28;20462;-65
2023/04/09 11:13:29;;;;;;;6.60;3.50;;;17.40;89.50;;;;;;5053732;28;20541;-63
2023/04/09 11:15:57;;;;;;;8.47;3.87;;;17.80;87.40;;;;;;5053464;28;20525;-63
2023/04/09 11:18:25;;;;;;;4.07;2.60;;;18.00;86.90;;;;;;5053478;28;20512;-62
2023/04/09 11:20:55;;;;;;;4.10;2.60;;;18.10;85.60;;;;;;5053489;28;20507;-62
2023/04/09 11:23:22;;;;;;;4.50;2.60;;;18.10;84.70;;;;;;5053350;28;20545;-63
2023/04/09 11:25:50;;;;;;;3.80;2.50;;;18.60;83.80;;;;;;5053573;28;21011;-63
2023/04/09 11:28:19;;;;;;;4.57;2.83;;;18.90;82.00;;;;;;5053527;28;20552;-64
2023/04/09 11:30:50;;;;;;;5.47;2.87;;;19.20;82.60;;;;;;5053804;28;20470;-62
2023/04/09 11:33:17;;;;;;;5.37;2.53;;;18.90;78.70;;;;;;5053178;28;20948;-63
2023/04/09 11:35:44;;;;;;;4.40;2.87;;;18.40;79.10;;;;;;5053122;28;20534;-62
2023/04/09 11:38:12;;;;;;;5.43;3.10;;;18.10;80.60;;;;;;5053234;28;20462;-63
2023/04/09 11:40:46;;;;;;;5.43;2.80;;;18.00;82.60;;;;;;5053127;28;20458;-62
2023/04/09 11:43:15;;;;;;;6.43;3.00;;;17.80;81.90;;;;;;5053160;28;20483;-63
2023/04/09 11:45:45;;;;;;;5.20;2.80;;;17.70;80.70;;;;;;5052702;28;20521;-63
2023/04/09 11:48:13;;;;;;;5.60;2.80;;;17.60;82.20;;;;;;5052910;28;20959;-63
2023/04/09 11:50:41;;;;;;;6.40;3.30;;;17.20;82.40;;;;;;5052770;28;20500;-63
2023/04/09 11:53:19;;;;;;;5.40;3.00;;;16.90;82.80;;;;;;5052990;28;20852;-63
2023/04/09 11:55:49;;;;;;;6.30;3.23;;;16.60;84.50;;;;;;5052109;28;20484;-63
2023/04/09 11:58:17;;;;;;;5.37;3.07;;;16.30;84.80;;;;;;5052306;28;20497;-63
2023/04/09 12:00:45;;;;;;;5.00;2.90;;;16.50;85.80;;;;;;5052695;28;20541;-62
2023/04/09 12:03:14;;;;;;;8.33;3.50;;;17.30;85.90;;;;;;5052557;28;20578;-63
2023/04/09 12:05:48;;;;;;;6.80;3.50;;;17.50;83.90;;;;;;5052524;28;20924;-62
2023/04/09 12:08:17;;;;;;;5.53;2.60;;;17.40;83.20;;;;;;5052788;28;20540;-64
2023/04/09 12:10:44;;;;;;;4.77;2.83;;;17.10;82.50;;;;;;5052586;28;20458;-63
2023/04/09 12:13:12;;;;;;;6.23;2.97;;;17.30;83.70;;;;;;5052523;28;20462;-63
2023/04/09 12:15:42;;;;;;;4.50;2.67;;;17.50;82.80;;;;;;5052336;28;20503;-63
2023/04/09 12:18:12;;;;;;;4.30;2.80;;;18.00;82.80;;;;;;5052341;28;20944;-63
2023/04/09 12:20:41;;;;;;;6.53;3.70;;;18.20;81.70;;;;;;5052272;28;20457;-63
2023/04/09 12:23:09;;;;;;;5.47;2.80;;;18.60;81.10;;;;;;5052252;28;20450;-63
2023/04/09 12:25:39;;;;;;;4.43;2.70;;;18.80;80.90;;;;;;5052144;28;20477;-64
2023/04/09 12:28:06;;;;;;;5.43;2.80;;;19.00;80.20;;;;;;5052447;28;20457;-63
2023/04/09 12:30:34;;;;;;;4.90;2.77;;;18.90;79.60;;;;;;5052210;28;20454;-63
2023/04/09 12:33:02;;;;;;;5.07;2.83;;;19.20;79.40;;;;;;5051902;28;20446;-62
2023/04/09 12:35:31;;;;;;;6.27;3.10;;;19.30;78.10;;;;;;5051918;28;20477;-63
2023/04/09 12:38:00;;;;;;;4.67;2.50;;;18.60;78.00;;;;;;5051793;28;20450;-63
2023/04/09 12:40:27;;;;;;;5.43;3.00;;;18.10;78.80;;;;;;5051872;28;20464;-63
2023/04/09 12:42:54;;;;;;;5.70;3.10;;;18.60;81.30;;;;;;5051719;28;21022;-63
2023/04/09 12:45:22;;;;;;;7.80;3.30;;;18.40;79.20;;;;;;5052109;28;20453;-63
2023/04/09 12:47:49;;;;;;;6.07;2.73;;;17.90;77.50;;;;;;5052082;28;21011;-63
2023/04/09 12:50:17;;;;;;;5.33;2.90;;;17.80;78.70;;;;;;5051953;28;20711;-63
2023/04/09 12:52:46;;;;;;;5.03;2.80;;;17.50;78.20;;;;;;5051228;28;20461;-63
2023/04/09 12:55:14;;;;;;;4.60;2.70;;;17.30;78.10;;;;;;5051459;28;20457;-63
2023/04/09 12:57:43;;;;;;;8.20;3.33;;;18.00;79.50;;;;;;5051582;28;20461;-63